Time;durP1;ratioP1;P1;durP2;ratioP2;P2;SDS_P1;SDS_P2;PMS_P1;PMS_P2;Temp;Humidity;BMP_temperature;BMP_pressure;BME280_temperature;BME280_humidity;BME280_pressure;Samples;Min_cycle;Max_cycle;Signal;HPM_P1;HPM_P2
2021/12/06 00:18:51;;;;;;;10.07;2.63;;;;;;;11.51;51.21;98031.16;5908337;22;18154901;-94
2021/12/06 00:21:42;;;;;;;9.13;2.22;;;;;;;11.14;51.55;98045.09;6276333;22;20225;-94
2021/12/06 00:24:47;;;;;;;8.43;2.80;;;;;;;12.12;50.67;98037.47;6246014;22;20014;-93
2021/12/06 00:27:49;;;;;;;11.98;2.75;;;;;;;10.96;54.00;98041.97;6251128;22;20703;-96
2021/12/06 00:30:54;;;;;;;9.38;2.80;;;;;;;11.93;51.48;98039.66;6219209;22;20035;-95
2021/12/06 00:36:43;;;;;;;8.15;2.33;;;;;;;15.69;44.19;98049.03;6304986;22;20033;-94
2021/12/06 00:42:54;;;;;;;6.97;2.10;;;;;;;15.19;42.89;98009.91;6298991;22;20013;-95
2021/12/06 00:45:28;;;;;;;7.82;2.20;;;;;;;15.19;42.00;98016.00;6124268;23;20021;-94
2021/12/06 00:49:01;;;;;;;7.93;2.30;;;;;;;14.21;44.46;98017.03;6121874;23;20009;-95
2021/12/06 00:55:45;;;;;;;8.32;2.00;;;;;;;14.07;45.22;97996.56;6062360;23;20015;-94
2021/12/06 00:58:41;;;;;;;9.93;2.13;;;;;;;12.32;49.29;97996.84;6006258;23;20463;-94
2021/12/06 01:01:23;;;;;;;7.90;2.20;;;;;;;17.40;40.46;97977.34;5973651;23;20437;-94
2021/12/06 01:04:22;;;;;;;;;;;;;;;;;;;;;
2021/12/06 01:07:36;;;;;;;7.35;2.53;;;;;;;14.36;43.48;97976.31;5938932;24;20023;-96
2021/12/06 01:10:44;;;;;;;10.00;2.30;;;;;;;13.73;46.30;97969.75;5908203;24;20009;-95
2021/12/06 01:16:28;;;;;;;14.00;2.72;;;;;;;16.13;40.21;97968.34;5913610;24;20031;-93
2021/12/06 01:18:53;;;;;;;9.32;2.30;;;;;;;14.49;42.70;97974.94;5915250;23;20024;-95
2021/12/06 01:21:26;;;;;;;9.48;2.10;;;;;;;13.87;45.44;97966.66;5936808;23;20079;-93
2021/12/06 01:23:57;;;;;;;9.85;2.53;;;;;;;15.46;38.90;97965.03;5996988;23;20012;-92
2021/12/06 01:26:42;;;;;;;10.43;2.20;;;;;;;16.69;41.71;97949.13;5996350;23;20529;-94
2021/12/06 01:39:46;;;;;;;7.57;1.80;;;;;;;14.52;42.96;97938.94;6299076;22;20534;-93
2021/12/06 01:42:12;;;;;;;7.50;1.70;;;;;;;18.08;36.12;97931.75;6298469;22;20015;-93
2021/12/06 01:44:47;;;;;;;8.32;1.80;;;;;;;21.16;30.95;97924.31;6271970;22;20015;-93
2021/12/06 01:47:22;;;;;;;6.88;1.90;;;;;;;21.14;30.40;97923.56;6298629;22;20088;-94
2021/12/06 01:50:10;;;;;;;9.45;1.80;;;;;;;22.57;28.21;97910.31;6270717;22;20014;-93
2021/12/06 01:52:39;;;;;;;6.20;1.85;;;;;;;22.01;28.59;97923.97;6269395;22;20011;-94
2021/12/06 01:55:11;;;;;;;11.20;2.00;;;;;;;22.41;28.27;97923.00;6269917;22;20011;-94
2021/12/06 01:57:40;;;;;;;8.15;2.08;;;;;;;24.13;25.76;97912.03;6270024;22;20022;-94
2021/12/06 02:00:12;;;;;;;8.00;1.88;;;;;;;23.17;26.95;97916.63;6271370;22;20000;-92
2021/12/06 02:02:40;;;;;;;9.38;1.98;;;;;;;22.44;27.68;97918.31;6270120;22;20082;-93
2021/12/06 02:05:07;;;;;;;8.45;2.00;;;;;;;20.43;30.48;97920.09;6299088;22;20007;-93
2021/12/06 02:07:33;;;;;;;10.23;2.10;;;;;;;22.50;28.12;97912.56;6271147;22;20015;-93
2021/12/06 02:09:59;;;;;;;7.00;1.60;;;;;;;21.56;28.82;97921.69;6271625;22;20357;-93
2021/12/06 02:12:30;;;;;;;10.88;2.03;;;;;;;23.02;26.60;97925.69;6269652;22;20050;-94
2021/12/06 02:15:03;;;;;;;9.90;2.22;;;;;;;23.74;26.08;97940.75;6299094;22;20041;-93
2021/12/06 02:17:39;;;;;;;10.02;1.80;;;;;;;21.15;28.95;97962.38;6298819;22;20190;-94
2021/12/06 02:20:22;;;;;;;6.97;1.55;;;;;;;23.58;26.74;97959.72;6272083;22;20101;-94
2021/12/06 02:22:48;;;;;;;;;;;;;;;19.09;33.63;97963.28;6271665;22;20014;-95
2021/12/06 02:25:19;;;;;;;9.38;1.70;;;;;;;23.10;27.15;97951.72;6295531;22;19906;-93
2021/12/06 02:27:48;;;;;;;11.63;1.60;;;;;;;23.95;26.03;97935.66;6267849;22;20023;-93
2021/12/06 02:30:15;;;;;;;5.85;1.38;;;;;;;17.85;35.10;97945.25;6298426;22;20026;-93
2021/12/06 02:32:42;;;;;;;6.97;1.42;;;;;;;15.91;37.46;97942.13;6270510;22;20157;-93
2021/12/06 02:35:15;;;;;;;7.57;1.77;;;;;;;15.17;39.26;97935.56;6270045;22;20103;-95
2021/12/06 02:37:41;;;;;;;;;;;;;;;13.37;42.76;97930.81;6298450;22;20014;-93
2021/12/06 02:40:11;;;;;;;10.05;2.03;;;;;;;12.00;47.48;97924.56;6297198;22;20323;-93
2021/12/06 02:42:41;;;;;;;7.25;2.03;;;;;;;17.82;36.86;97911.97;6268851;22;20003;-93
2021/12/06 02:45:09;;;;;;;8.50;2.63;;;;;;;20.02;32.03;97895.25;6270208;22;20015;-93
2021/12/06 02:47:35;;;;;;;8.05;2.75;;;;;;;12.44;45.49;97902.34;6297805;22;20078;-94
2021/12/06 02:50:07;;;;;;;8.75;3.22;;;;;;;12.37;46.09;97910.41;6268751;22;20160;-93
2021/12/06 02:52:33;;;;;;;10.70;2.88;;;;;;;17.89;36.71;97888.78;6268385;22;20007;-94
2021/12/06 02:55:01;;;;;;;9.70;2.78;;;;;;;18.59;34.31;97884.13;6269059;22;20018;-93
2021/12/06 02:57:36;;;;;;;8.82;2.08;;;;;;;17.94;34.36;97893.84;6295749;22;20508;-93
2021/12/06 03:00:08;;;;;;;8.57;2.30;;;;;;;14.41;41.16;97890.44;6294472;22;20035;-92
2021/12/06 03:02:33;;;;;;;8.40;1.88;;;;;;;13.26;44.61;97886.66;6265716;22;20026;-94
2021/12/06 03:04:59;;;;;;;6.78;1.67;;;;;;;17.71;35.92;97870.34;6267559;22;20349;-94
2021/12/06 03:07:28;;;;;;;8.10;2.10;;;;;;;15.63;37.84;97874.94;6269075;22;20086;-93
2021/12/06 03:09:55;;;;;;;9.30;2.20;;;;;;;13.43;44.27;97878.25;6268373;22;20016;-93
2021/12/06 03:12:26;;;;;;;8.50;2.35;;;;;;;11.65;48.12;97868.88;6268829;22;20003;-94
2021/12/06 03:14:58;;;;;;;6.75;1.73;;;;;;;13.42;43.36;97873.06;6293960;22;20007;-94
2021/12/06 03:17:29;;;;;;;9.57;1.83;;;;;;;12.02;47.08;97876.56;6296873;22;20053;-92
2021/12/06 03:19:55;;;;;;;7.55;2.15;;;;;;;13.00;43.95;97881.41;6297063;22;20015;-93
2021/12/06 03:22:24;;;;;;;14.48;1.92;;;;;;;10.34;52.39;97879.09;6269685;22;20011;-94
2021/12/06 03:24:50;;;;;;;8.02;1.40;;;;;;;12.07;45.46;97877.28;6269329;22;20094;-94
2021/12/06 03:27:17;;;;;;;8.93;1.50;;;;;;;16.25;39.13;97854.66;6267527;22;20464;-94
2021/12/06 03:29:57;;;;;;;8.50;1.50;;;;;;;11.32;48.11;97864.53;6269530;22;20077;-93
2021/12/06 03:32:22;;;;;;;6.43;1.45;;;;;;;13.06;46.28;97860.28;6269712;22;20019;-94
2021/12/06 03:34:48;;;;;;;8.15;1.40;;;;;;;9.94;53.68;97871.22;6296615;22;20042;-93
2021/12/06 03:37:13;;;;;;;7.95;1.35;;;;;;;9.57;54.54;97857.19;6293790;22;20007;-94
2021/12/06 03:39:50;;;;;;;8.02;1.17;;;;;;;9.04;56.48;97859.91;6296971;22;20423;-94
2021/12/06 03:42:21;;;;;;;6.80;1.25;;;;;;;9.22;56.80;97850.91;6269194;22;20329;-93
2021/12/06 03:44:52;;;;;;;8.68;1.35;;;;;;;9.32;55.91;97851.59;6297622;22;20009;-93
2021/12/06 03:47:31;;;;;;;7.78;1.20;;;;;;;9.65;56.14;97841.44;6268302;22;20086;-93
2021/12/06 03:49:57;;;;;;;7.57;1.27;;;;;;;9.53;55.38;97840.78;6268036;22;20046;-94
2021/12/06 03:52:23;;;;;;;8.93;1.63;;;;;;;10.11;52.80;97832.66;6296173;22;20003;-92
2021/12/06 03:54:50;;;;;;;8.32;1.75;;;;;;;10.46;54.36;97824.94;6269048;22;20007;-93
2021/12/06 03:57:16;;;;;;;11.80;2.40;;;;;;;9.66;56.51;97824.91;6294759;22;20508;-94
2021/12/06 03:59:42;;;;;;;8.00;2.65;;;;;;;9.66;57.49;97831.00;6296730;22;20006;-93
2021/12/06 04:02:08;;;;;;;12.60;4.13;;;;;;;8.68;58.50;97829.31;6296405;22;20003;-93
2021/12/06 04:04:35;;;;;;;18.23;6.38;;;;;;;9.18;58.10;97816.28;6270119;22;20349;-93
2021/12/06 04:07:02;;;;;;;20.92;8.10;;;;;;;9.39;58.23;97819.38;6269151;22;20011;-94
2021/12/06 04:09:28;;;;;;;31.05;10.55;;;;;;;9.03;58.98;97814.84;6297423;22;20033;-93
2021/12/06 04:11:56;;;;;;;25.70;9.65;;;;;;;9.11;58.51;97801.69;6296790;22;20627;-93
2021/12/06 04:14:21;;;;;;;27.35;9.55;;;;;;;9.71;54.97;97797.03;6296438;22;20038;-93
2021/12/06 04:16:47;;;;;;;21.77;8.75;;;;;;;10.15;55.03;97786.56;6268429;22;20505;-94
2021/12/06 04:19:16;;;;;;;20.95;7.82;;;;;;;9.44;57.92;97782.88;6294193;22;20831;-93
2021/12/06 04:21:44;;;;;;;17.98;8.07;;;;;;;10.14;56.12;97777.00;6296717;22;20019;-93
2021/12/06 04:24:11;;;;;;;19.33;7.60;;;;;;;9.14;58.95;97779.97;6296740;22;20007;-94
2021/12/06 04:26:40;;;;;;;16.25;6.80;;;;;;;10.40;55.09;97759.03;6295252;22;20465;-93
2021/12/06 04:29:07;;;;;;;16.33;6.78;;;;;;;8.92;59.34;97743.09;6296523;22;20103;-92
2021/12/06 04:31:37;;;;;;;15.90;5.30;;;;;;;11.72;52.63;97732.84;6269970;22;20349;-93
2021/12/06 04:34:03;;;;;;;13.43;4.72;;;;;;;9.77;57.52;97729.22;6297797;22;20014;-93
2021/12/06 04:36:29;;;;;;;15.13;4.88;;;;;;;10.82;54.61;97726.69;6271309;22;20467;-93
2021/12/06 04:38:54;;;;;;;14.82;5.15;;;;;;;9.25;59.08;97731.19;6297898;22;20007;-94
2021/12/06 04:41:21;;;;;;;17.63;5.63;;;;;;;14.57;47.46;97715.75;6298605;22;20003;-93
2021/12/06 04:43:47;;;;;;;19.67;6.40;;;;;;;12.24;49.36;97714.72;6297441;22;20011;-94
2021/12/06 04:46:12;;;;;;;20.40;7.60;;;;;;;13.28;44.74;97701.53;6271421;22;20010;-93
2021/12/06 04:48:38;;;;;;;25.38;9.15;;;;;;;11.30;51.41;97711.47;6269552;22;20007;-93
2021/12/06 04:51:04;;;;;;;25.83;10.38;;;;;;;10.30;54.85;97708.00;6270430;22;20947;-93
2021/12/06 04:53:36;;;;;;;26.27;10.85;;;;;;;9.35;55.80;97704.09;6269867;22;20018;-93
2021/12/06 04:56:32;;;;;;;26.15;10.07;;;;;;;10.46;55.27;97711.09;6270974;22;20011;-94
2021/12/06 05:02:30;;;;;;;22.25;9.07;;;;;;;11.94;51.46;97688.66;6297783;22;20013;-93
2021/12/06 05:05:08;;;;;;;21.83;8.52;;;;;;;10.46;54.44;97682.44;6271303;22;20133;-93
2021/12/06 05:07:40;;;;;;;23.27;9.02;;;;;;;11.05;52.62;97666.06;6269885;22;20011;-93
2021/12/06 05:10:08;;;;;;;22.08;9.43;;;;;;;11.53;51.10;97666.41;6269814;22;20010;-93
2021/12/06 05:12:34;;;;;;;20.85;8.70;;;;;;;10.97;52.62;97646.28;6297788;22;20771;-93
2021/12/06 05:15:00;;;;;;;26.50;9.25;;;;;;;11.98;50.37;97642.38;6271329;22;20000;-92
2021/12/06 05:17:28;;;;;;;22.67;8.13;;;;;;;11.56;51.38;97641.03;6270949;22;20018;-93
2021/12/06 05:19:55;;;;;;;22.25;7.75;;;;;;;11.55;50.96;97636.75;6271584;22;20128;-92
2021/12/06 05:22:22;;;;;;;25.58;7.30;;;;;;;11.85;51.62;97621.00;6295728;22;20011;-94
2021/12/06 05:24:48;;;;;;;20.90;7.82;;;;;;;14.50;45.06;97614.59;6268784;22;20086;-93
2021/12/06 05:27:19;;;;;;;30.27;7.30;;;;;;;11.64;50.11;97626.94;6269368;22;20460;-93
2021/12/06 05:29:50;;;;;;;24.98;6.70;;;;;;;12.24;49.85;97611.91;6270780;22;20019;-93
2021/12/06 05:32:16;;;;;;;19.83;7.35;;;;;;;13.80;46.12;97599.13;6297068;22;19999;-93
2021/12/06 05:34:44;;;;;;;22.33;8.15;;;;;;;11.58;50.35;97612.31;6269622;22;20441;-93
2021/12/06 05:37:12;;;;;;;20.60;8.48;;;;;;;14.11;43.37;97594.41;6270719;22;20003;-92
2021/12/06 05:39:38;;;;;;;20.77;8.85;;;;;;;10.59;53.57;97591.72;6297817;22;20002;-92
2021/12/06 05:42:08;;;;;;;26.50;9.48;;;;;;;11.00;52.50;97581.00;6297417;22;20007;-93
2021/12/06 05:44:34;;;;;;;27.85;10.50;;;;;;;12.07;52.04;97568.91;6297851;22;20101;-92
2021/12/06 05:47:00;;;;;;;22.70;9.55;;;;;;;10.43;54.23;97573.03;6297898;22;20003;-93
2021/12/06 05:49:27;;;;;;;21.70;9.02;;;;;;;10.07;56.50;97575.72;6297464;22;20775;-93
2021/12/06 05:51:52;;;;;;;19.38;8.60;;;;;;;9.59;57.10;97569.09;6296349;22;20014;-93
2021/12/06 05:54:18;;;;;;;25.90;9.48;;;;;;;7.71;64.36;97576.34;6269268;22;20320;-92
2021/12/06 05:56:45;;;;;;;25.40;9.82;;;;;;;7.30;66.29;97570.91;6295161;22;20038;-93
2021/12/06 05:59:12;;;;;;;29.33;10.02;;;;;;;8.92;59.86;97555.88;6270250;22;20011;-92
2021/12/06 06:01:38;;;;;;;32.28;11.35;;;;;;;8.77;61.09;97567.47;6296344;22;20133;-92
2021/12/06 06:04:03;;;;;;;27.65;10.93;;;;;;;8.28;61.86;97548.50;6269225;22;20053;-92
2021/12/06 06:06:31;;;;;;;27.67;10.45;;;;;;;9.40;59.64;97535.69;6297941;22;20547;-92
2021/12/06 06:08:57;;;;;;;27.50;11.27;;;;;;;9.50;58.79;97523.31;6270456;22;20010;-94
2021/12/06 06:11:24;;;;;;;27.08;11.38;;;;;;;9.98;56.78;97510.81;6297501;22;20003;-94
2021/12/06 06:13:50;;;;;;;31.75;10.88;;;;;;;9.87;55.26;97503.31;6297746;22;20045;-92
2021/12/06 06:16:19;;;;;;;34.55;11.57;;;;;;;9.08;59.04;97515.66;6298664;22;20018;-92
2021/12/06 06:18:46;;;;;;;30.73;11.43;;;;;;;10.28;56.46;97508.28;6266205;22;20027;-93
2021/12/06 06:21:12;;;;;;;34.42;11.05;;;;;;;11.99;49.81;97505.59;6265576;22;20004;-92
2021/12/06 06:23:38;;;;;;;30.42;10.90;;;;;;;11.31;51.36;97522.66;6266142;22;20086;-95
2021/12/06 06:26:03;;;;;;;29.40;10.30;;;;;;;8.03;60.23;97539.44;6265197;22;20008;-93
2021/12/06 06:28:29;;;;;;;72.45;14.63;;;;;;;8.57;61.89;97536.69;6266270;22;20276;-93
2021/12/06 06:30:57;;;;;;;33.08;12.68;;;;;;;8.02;62.82;97532.53;6267391;22;20169;-93
2021/12/06 06:33:23;;;;;;;33.85;11.75;;;;;;;8.09;63.59;97520.28;6267672;22;20007;-93
2021/12/06 06:35:48;;;;;;;37.33;12.15;;;;;;;9.88;57.78;97537.13;6264920;22;20312;-93
2021/12/06 06:38:14;;;;;;;34.22;11.82;;;;;;;9.82;58.67;97532.06;6266400;22;20294;-93
2021/12/06 06:41:19;;;;;;;41.08;12.57;;;;;;;9.81;56.05;97535.59;6267867;22;20128;-93
2021/12/06 06:43:46;;;;;;;37.97;14.93;;;;;;;10.31;56.89;97521.22;6263911;22;20029;-94
2021/12/06 06:46:12;;;;;;;31.33;10.90;;;;;;;9.45;56.84;97525.19;6267916;22;20454;-93
2021/12/06 06:48:38;;;;;;;33.60;11.65;;;;;;;9.55;57.24;97516.25;6267644;22;20016;-93
2021/12/06 06:51:03;;;;;;;87.40;14.45;;;;;;;9.41;57.53;97510.53;6266412;22;20018;-94
2021/12/06 06:53:29;;;;;;;29.40;10.88;;;;;;;8.91;59.13;97497.84;6266157;22;20007;-93
2021/12/06 06:55:56;;;;;;;30.70;10.27;;;;;;;8.48;60.89;97499.63;6264698;22;20007;-93
2021/12/06 06:58:22;;;;;;;23.30;9.88;;;;;;;8.98;59.15;97489.00;6264505;22;19999;-94
2021/12/06 07:00:48;;;;;;;36.13;9.77;;;;;;;9.60;58.57;97465.81;6265883;22;20012;-93
2021/12/06 07:03:14;;;;;;;26.77;7.65;;;;;;;9.17;58.54;97455.63;6264230;22;20004;-95
2021/12/06 07:05:39;;;;;;;19.35;7.15;;;;;;;9.92;56.63;97441.53;6264870;22;20014;-93
2021/12/06 07:08:06;;;;;;;27.15;8.35;;;;;;;9.25;58.52;97439.81;6264193;22;20003;-95
2021/12/06 07:10:37;;;;;;;18.73;7.15;;;;;;;9.97;55.67;97433.59;6265725;22;20065;-94
2021/12/06 07:13:07;;;;;;;16.67;6.72;;;;;;;9.80;57.71;97440.13;6266046;22;20019;-93
2021/12/06 07:15:35;;;;;;;20.40;7.35;;;;;;;9.10;58.69;97428.03;6265749;22;20069;-95
2021/12/06 07:18:03;;;;;;;19.98;7.05;;;;;;;8.98;60.22;97438.75;6259624;22;20050;-92
2021/12/06 07:20:32;;;;;;;20.60;7.93;;;;;;;9.25;59.84;97423.34;6262837;22;20019;-92
2021/12/06 07:23:01;;;;;;;19.40;7.82;;;;;;;9.03;59.33;97423.88;6260300;22;20808;-92
2021/12/06 07:25:27;;;;;;;24.73;8.77;;;;;;;9.02;59.74;97417.81;6264245;22;20524;-95
2021/12/06 07:27:56;;;;;;;20.58;8.18;;;;;;;8.77;60.54;97398.50;6265643;22;20014;-96
2021/12/06 07:30:21;;;;;;;24.23;9.02;;;;;;;9.41;58.65;97409.06;6262233;22;20043;-94
2021/12/06 07:32:51;;;;;;;20.40;8.00;;;;;;;8.59;60.10;97398.06;6262803;22;20555;-95
2021/12/06 07:35:17;;;;;;;21.58;7.53;;;;;;;8.79;60.82;97410.56;6261945;22;20094;-96
2021/12/06 07:37:43;;;;;;;21.60;7.93;;;;;;;8.45;62.36;97411.34;6262952;22;20017;-91
2021/12/06 07:40:10;;;;;;;20.52;8.27;;;;;;;8.02;63.15;97410.50;6263408;22;20015;-94
2021/12/06 07:42:36;;;;;;;20.83;7.75;;;;;;;8.97;60.71;97388.47;6264672;22;20007;-94
2021/12/06 07:45:05;;;;;;;22.63;8.55;;;;;;;8.18;57.96;97394.59;6267080;22;20706;-95
2021/12/06 07:47:31;;;;;;;21.67;7.65;;;;;;;8.66;61.09;97399.63;6267246;22;20011;-95
2021/12/06 07:50:00;;;;;;;45.45;10.55;;;;;;;8.09;61.95;97405.19;6268721;22;20559;-95
2021/12/06 07:52:26;;;;;;;20.77;7.30;;;;;;;8.10;62.39;97409.47;6264340;22;20463;-95
2021/12/06 07:54:53;;;;;;;21.40;8.23;;;;;;;9.13;59.35;97388.97;6265747;22;20007;-96
2021/12/06 07:57:19;;;;;;;20.45;7.63;;;;;;;8.16;60.45;97379.03;6262036;22;20433;-95
2021/12/06 07:59:44;;;;;;;20.23;8.40;;;;;;;6.36;68.36;97375.38;6262697;22;20002;-95
2021/12/06 08:02:10;;;;;;;18.48;7.78;;;;;;;8.02;63.95;97368.94;6265042;22;20014;-94
2021/12/06 08:04:39;;;;;;;15.70;7.35;;;;;;;7.21;65.54;97371.41;6263170;22;20022;-93
2021/12/06 08:07:13;;;;;;;22.35;7.88;;;;;;;7.39;65.99;97379.72;6262316;22;20050;-95
2021/12/06 08:09:39;;;;;;;18.10;7.68;;;;;;;7.81;64.08;97379.78;6258080;22;20015;-94
2021/12/06 08:12:05;;;;;;;18.65;7.57;;;;;;;7.79;63.34;97366.81;6264483;22;20312;-93
2021/12/06 08:14:31;;;;;;;23.05;8.23;;;;;;;7.94;62.88;97370.00;6261385;22;20094;-93
2021/12/06 08:16:57;;;;;;;20.95;7.35;;;;;;;7.59;63.72;97363.78;6263638;22;20042;-93
2021/12/06 08:19:23;;;;;;;19.77;7.95;;;;;;;8.55;61.39;97362.63;6278765;22;20012;-94
2021/12/06 08:21:48;;;;;;;18.38;7.72;;;;;;;7.09;65.68;97348.28;6269414;22;20015;-93
2021/12/06 08:24:14;;;;;;;22.23;8.77;;;;;;;6.75;69.06;97356.63;6269097;22;20580;-96
2021/12/06 08:26:44;;;;;;;20.02;7.90;;;;;;;10.93;63.26;97333.38;6296168;22;20007;-94
2021/12/06 08:29:13;;;;;;;21.15;8.32;;;;;;;7.66;65.74;97347.22;6267897;22;20043;-94
2021/12/06 08:32:00;;;;;;;25.15;9.45;;;;;;;6.94;66.53;97331.25;6269806;22;20072;-93
2021/12/06 08:34:26;;;;;;;19.83;8.02;;;;;;;7.77;65.61;97332.28;6268715;22;20011;-94
2021/12/06 08:36:51;;;;;;;19.13;7.93;;;;;;;8.28;62.89;97318.19;6267779;22;20100;-94
2021/12/06 08:39:22;;;;;;;27.30;8.27;;;;;;;7.95;63.17;97312.84;6271215;22;20018;-96
2021/12/06 08:41:51;;;;;;;18.58;7.25;;;;;;;8.14;62.65;97313.31;6298301;22;20027;-94
2021/12/06 08:44:17;;;;;;;16.98;6.45;;;;;;;11.76;61.62;97311.34;6268031;22;20065;-95
2021/12/06 08:46:43;;;;;;;21.30;6.50;;;;;;;11.07;55.64;97305.97;6294693;22;20007;-95
2021/12/06 08:49:11;;;;;;;16.63;6.68;;;;;;;8.77;59.05;97298.00;6295326;22;20473;-95
2021/12/06 08:51:57;;;;;;;16.33;6.60;;;;;;;9.15;61.01;97298.72;6267516;22;20019;-94
2021/12/06 08:54:27;;;;;;;16.67;6.82;;;;;;;9.37;59.58;97295.56;6294158;22;20003;-93
2021/12/06 08:56:55;;;;;;;18.20;6.45;;;;;;;8.25;62.57;97296.63;6266604;22;20634;-93
2021/12/06 08:59:22;;;;;;;17.65;7.00;;;;;;;7.89;64.11;97287.06;6293453;22;20387;-93
2021/12/06 09:01:48;;;;;;;18.88;7.40;;;;;;;8.81;61.85;97278.81;6268334;22;20018;-94
2021/12/06 09:04:14;;;;;;;18.42;7.75;;;;;;;9.13;59.33;97258.91;6269280;22;20082;-94
2021/12/06 09:06:45;;;;;;;17.33;6.57;;;;;;;9.48;58.63;97258.84;6268276;22;20349;-93
2021/12/06 09:09:12;;;;;;;14.85;6.63;;;;;;;8.99;60.35;97258.41;6267716;22;20015;-92
2021/12/06 09:11:40;;;;;;;21.23;7.63;;;;;;;8.78;60.08;97252.03;6268926;22;20388;-92
2021/12/06 09:14:06;;;;;;;17.15;7.15;;;;;;;9.61;58.58;97243.69;6269376;22;20010;-93
2021/12/06 09:16:36;;;;;;;20.25;7.40;;;;;;;9.70;58.00;97236.47;6295425;22;20007;-93
2021/12/06 09:19:06;;;;;;;23.48;8.25;;;;;;;9.19;60.69;97229.28;6269372;22;20015;-93
2021/12/06 09:22:07;;;;;;;18.40;7.90;;;;;;;9.44;58.39;97200.81;6297304;22;20046;-91
2021/12/06 09:24:49;;;;;;;;;;;;;;;;;;;;;
2021/12/06 09:27:21;;;;;;;17.33;7.68;;;;;;;8.51;61.75;97194.72;6290014;22;20017;-93
2021/12/06 09:29:47;;;;;;;21.45;8.25;;;;;;;9.63;58.85;97182.03;6268641;22;20472;-93
2021/12/06 09:32:16;;;;;;;17.00;7.80;;;;;;;6.56;64.33;97190.31;6269612;22;20049;-93
2021/12/06 09:34:44;;;;;;;19.42;7.85;;;;;;;6.28;68.06;97181.28;6297210;22;20015;-93
2021/12/06 09:37:11;;;;;;;21.15;7.40;;;;;;;8.93;64.83;97168.44;6270093;22;20019;-93
2021/12/06 09:39:40;;;;;;;20.08;7.07;;;;;;;9.37;60.21;97160.25;6269400;22;20030;-94
2021/12/06 09:42:10;;;;;;;14.77;6.47;;;;;;;9.13;60.92;97146.22;6268480;22;20387;-93
2021/12/06 09:44:57;;;;;;;;;;;;;;;;;;;;;
2021/12/06 09:47:31;;;;;;;15.73;6.82;;;;;;;8.65;61.40;97140.63;6290853;22;20003;-92
2021/12/06 09:50:00;;;;;;;16.35;6.07;;;;;;;8.90;62.09;97118.28;6269811;22;20021;-94
2021/12/06 09:52:26;;;;;;;18.77;7.50;;;;;;;8.36;65.91;97105.00;6267415;22;20007;-93
2021/12/06 09:54:52;;;;;;;18.52;7.53;;;;;;;8.43;64.82;97103.09;6268148;22;20017;-93
2021/12/06 09:57:21;;;;;;;15.30;6.60;;;;;;;7.31;69.11;97090.28;6269688;22;20007;-94
2021/12/06 09:59:46;;;;;;;20.65;6.72;;;;;;;8.85;65.14;97080.28;6268446;22;20004;-94
2021/12/06 10:02:17;;;;;;;15.90;6.35;;;;;;;9.28;62.58;97057.31;6268104;22;20033;-94
2021/12/06 10:04:51;;;;;;;23.30;6.88;;;;;;;9.39;63.21;97052.66;6268751;22;20034;-94
2021/12/06 10:07:21;;;;;;;15.85;5.95;;;;;;;7.06;65.89;97064.06;6266769;22;20015;-95
2021/12/06 10:09:50;;;;;;;22.23;5.95;;;;;;;8.22;63.45;97060.38;6266374;22;20019;-94
2021/12/06 10:12:18;;;;;;;13.77;5.82;;;;;;;9.55;57.67;97042.59;6269595;22;20464;-93
2021/12/06 10:14:45;;;;;;;15.25;5.38;;;;;;;8.74;61.54;97048.56;6296915;22;20063;-94
2021/12/06 10:17:12;;;;;;;13.48;5.07;;;;;;;8.31;64.16;97049.72;6294233;22;20010;-94
2021/12/06 10:19:38;;;;;;;13.57;4.72;;;;;;;8.05;59.59;97048.69;6265142;22;20116;-94
2021/12/06 10:22:05;;;;;;;11.68;4.82;;;;;;;8.59;62.14;97035.97;6267384;22;20034;-93
2021/12/06 10:24:31;;;;;;;15.05;5.38;;;;;;;9.09;61.64;97038.84;6295469;22;20007;-93
2021/12/06 10:27:11;;;;;;;18.45;5.53;;;;;;;7.29;65.42;97036.75;6265560;22;20034;-93
2021/12/06 10:29:54;;;;;;;14.07;5.43;;;;;;;10.34;59.61;97016.50;6269819;22;20054;-93
2021/12/06 10:32:24;;;;;;;13.80;5.90;;;;;;;9.74;61.15;97037.63;6267053;22;20638;-94
2021/12/06 10:34:54;;;;;;;11.50;4.82;;;;;;;7.40;65.17;97052.06;6295899;22;20011;-94
2021/12/06 10:37:55;;;;;;;13.10;5.40;;;;;;;6.83;68.99;97036.91;6269891;22;20014;-93
2021/12/06 10:40:38;;;;;;;10.90;4.40;;;;;;;6.35;70.23;97031.00;6268905;22;20054;-93
2021/12/06 10:43:11;;;;;;;14.77;4.93;;;;;;;8.78;64.11;97024.19;6268838;22;20011;-94
2021/12/06 10:45:44;;;;;;;8.93;3.47;;;;;;;8.82;64.32;97022.31;6296243;22;20006;-94
2021/12/06 10:48:28;;;;;;;10.43;3.88;;;;;;;7.43;64.48;97031.22;6268415;22;20051;-94
2021/12/06 10:50:54;;;;;;;9.23;3.63;;;;;;;6.81;69.91;97001.56;6268327;22;20194;-93
2021/12/06 10:53:25;;;;;;;9.10;3.72;;;;;;;6.18;72.10;97015.81;6270047;22;20038;-93
2021/12/06 10:55:53;;;;;;;8.45;3.53;;;;;;;7.12;71.51;97016.41;6298999;22;20038;-93
2021/12/06 10:58:35;;;;;;;9.10;3.53;;;;;;;7.29;68.62;96993.53;6269774;22;20011;-92
2021/12/06 11:01:09;;;;;;;9.10;3.53;;;;;;;5.85;69.85;96990.53;6265422;22;20011;-92
2021/12/06 11:03:47;;;;;;;7.43;2.72;;;;;;;5.47;74.72;96987.75;6295156;22;20822;-93
2021/12/06 11:06:19;;;;;;;8.18;2.83;;;;;;;6.77;75.70;96971.44;6297563;22;20086;-94
2021/12/06 11:08:50;;;;;;;7.72;2.80;;;;;;;6.80;65.99;96967.00;6298379;22;20031;-94
2021/12/06 11:11:24;;;;;;;8.00;2.03;;;;;;;5.32;74.57;96964.75;6298577;22;20349;-94
2021/12/06 11:13:53;;;;;;;6.43;1.98;;;;;;;8.91;67.99;96944.06;6298437;22;20011;-92
2021/12/06 11:16:24;;;;;;;5.82;1.90;;;;;;;5.02;76.63;96935.94;6270216;22;20060;-91
2021/12/06 11:18:55;;;;;;;7.40;1.98;;;;;;;6.62;73.96;96923.41;6269801;22;20023;-90
2021/12/06 11:21:23;;;;;;;5.85;1.70;;;;;;;5.66;73.69;96919.34;6297519;22;20007;-91
2021/12/06 11:24:10;;;;;;;6.00;1.60;;;;;;;5.46;75.48;96929.16;6298073;22;20015;-92
2021/12/06 11:26:43;;;;;;;5.00;1.33;;;;;;;4.81;76.62;96933.72;6270146;22;20112;-92
2021/12/06 11:29:24;;;;;;;3.88;1.20;;;;;;;6.77;69.83;96924.78;6296687;22;20043;-96
2021/12/06 11:32:12;;;;;;;3.88;1.10;;;;;;;4.86;75.53;96919.84;6269990;22;20613;-89
2021/12/06 11:34:59;;;;;;;5.93;1.20;;;;;;;4.00;77.89;96929.66;6298203;22;20003;-89
2021/12/06 11:37:28;;;;;;;2.83;0.90;;;;;;;5.54;81.00;96928.16;6296789;22;19999;-90
2021/12/06 11:40:14;;;;;;;4.75;1.00;;;;;;;3.82;80.58;96928.16;6296265;22;20030;-89
2021/12/06 11:42:56;;;;;;;3.03;0.73;;;;;;;3.99;80.69;96940.00;6295682;22;20041;-90
2021/12/06 11:45:34;;;;;;;4.75;0.82;;;;;;;4.33;79.62;96932.69;6268867;22;20019;-90
2021/12/06 11:48:10;;;;;;;2.70;0.80;;;;;;;3.47;82.68;96929.41;6270647;22;20011;-91
2021/12/06 11:50:51;;;;;;;2.97;0.70;;;;;;;4.07;82.24;96928.69;6295870;22;20007;-91
2021/12/06 11:53:20;;;;;;;29.42;2.88;;;;;;;4.38;81.28;96932.63;6269421;22;20528;-91
2021/12/06 11:55:54;;;;;;;2.83;0.80;;;;;;;3.70;82.95;96929.16;6270217;22;20003;-91
2021/12/06 11:58:25;;;;;;;6.05;1.00;;;;;;;4.18;82.66;96932.91;6297893;22;20018;-92
2021/12/06 12:01:07;;;;;;;5.20;0.90;;;;;;;4.77;76.78;96932.91;6268702;22;20015;-91
2021/12/06 12:03:34;;;;;;;2.92;0.82;;;;;;;5.60;74.60;96928.06;6267742;22;20045;-92
2021/12/06 12:06:19;;;;;;;2.97;0.82;;;;;;;5.04;77.50;96918.69;6295462;22;20007;-92
2021/12/06 12:08:45;;;;;;;2.75;0.70;;;;;;;6.91;69.95;96912.34;6295925;22;20010;-91
2021/12/06 12:11:10;;;;;;;1.52;0.52;;;;;;;6.30;70.72;96909.44;6270709;22;20126;-91
2021/12/06 12:13:37;;;;;;;2.08;0.50;;;;;;;6.29;70.10;96928.44;6270103;22;20007;-91
2021/12/06 12:16:04;;;;;;;6.55;0.93;;;;;;;5.63;71.96;96918.50;6268727;22;20353;-92
2021/12/06 12:18:50;;;;;;;15.30;1.25;;;;;;;6.21;70.83;96904.44;6298301;22;19999;-96
2021/12/06 12:21:17;;;;;;;3.88;0.70;;;;;;;5.38;71.08;96915.50;6295924;22;20496;-96
2021/12/06 12:23:45;;;;;;;19.77;2.08;;;;;;;4.92;73.85;96929.22;6269087;22;20011;-94
2021/12/06 12:26:16;;;;;;;2.65;0.60;;;;;;;4.61;78.28;96891.81;6296191;22;19999;-95
2021/12/06 12:29:14;;;;;;;2.70;0.70;;;;;;;5.17;75.90;96882.31;6297308;22;20019;-93
2021/12/06 12:31:42;;;;;;;4.00;0.63;;;;;;;6.71;71.14;96873.09;6290457;22;20061;-95
2021/12/06 12:34:09;;;;;;;2.55;0.73;;;;;;;5.12;69.98;96874.63;6271333;22;20489;-94
2021/12/06 12:36:35;;;;;;;2.45;0.75;;;;;;;4.44;76.82;96875.75;6271211;22;20822;-92
2021/12/06 12:39:01;;;;;;;2.22;0.60;;;;;;;3.72;78.46;96867.28;6297949;22;19999;-93
2021/12/06 12:41:30;;;;;;;3.35;1.00;;;;;;;4.58;75.39;96866.06;6269925;22;20007;-93